Emporia, VA

10:11 PM EDT on June 25, 2017 (GMT -0400)
Emporia-Greensville Regional

Weather History for KEMV - November, 2013

Change the Weather History Date:

Sunday, November 24, 2013

  Actual Average Record
Temperature  
Mean Temperature 31 °F -  
Max Temperature 41 °F 61 °F 76 °F (1982)
Min Temperature 21 °F 34 °F 20 °F (1989)
Degree Days  
Heating Degree Days 34    
Moisture  
Dew Point 8 °F    
Average Humidity 40    
Maximum Humidity 68    
Minimum Humidity 25    
Precipitation  
Precipitation 0.00 in - - ()
Sea Level Pressure  
Sea Level Pressure 30.42 in    
Wind  
Wind Speed 10 mph (NW)    
Max Wind Speed 21 mph    
Max Gust Speed 29 mph    
Visibility 10 miles    
Events      
Averages and records for this station are not official NWS values.
T = Trace of Precipitation, MM = Missing Value Source: NWS Daily Summary

Daily Weather History Graph

Daily Weather History Graph

Search for Another Location

Airport or City:

Trip Planner

Search our weather history database for the weather conditions in past years. The results will help you decide how hot, cold, wet, or windy it might be!

Date:

Astronomy

Nov. 24, 2013 Rise Set
Actual Time 6:57 AM EST 4:55 PM EST
Civil Twilight 6:29 AM EST 5:24 PM EST
Nautical Twilight 5:57 AM EST 5:55 PM EST
Astronomical Twilight 5:26 AM EST 6:26 PM EST
Moon 11:14 PM EST (11/24) 11:48 AM EST (11/24)
Length of Visible Light 10h 54m
Length of Day
9h 58m
Waning Gibbous, 61% of the Moon is Illuminated
Nov 24
Waning Gibbous
Nov 25
Last Quarter
Dec 2
New
Dec 9
First Quarter
Dec 17
Full

Hourly Weather History & Observations

Time (EST) Temp. Windchill Dew Point Humidity Pressure Visibility Wind Dir Wind Speed Gust Speed Precip Events Conditions
12:15 AM 41.0 °F 35.2 °F 19.4 °F 42% 30.17 in 10.0 mi WNW 9.2 mph - N/A   Clear
12:35 AM 41.0 °F 35.8 °F 19.4 °F 42% 30.17 in 10.0 mi WNW 8.1 mph 17.3 mph N/A   Clear
12:55 AM 41.0 °F 34.7 °F 17.6 °F 39% 30.18 in 10.0 mi WNW 10.4 mph 17.3 mph N/A   Clear
1:15 AM 39.2 °F 33.6 °F 17.6 °F 42% 30.19 in 10.0 mi West 8.1 mph - N/A   Clear
1:35 AM 37.4 °F 31.4 °F 19.4 °F 48% 30.20 in 10.0 mi WNW 8.1 mph - N/A   Clear
1:55 AM 37.4 °F 31.4 °F 19.4 °F 48% 30.21 in 10.0 mi WNW 8.1 mph - N/A   Clear
2:15 AM 35.6 °F 28.6 °F 17.6 °F 48% 30.22 in 10.0 mi WNW 9.2 mph - N/A   Clear
2:35 AM 35.6 °F 28.0 °F 17.6 °F 48% 30.22 in 10.0 mi WNW 10.4 mph 18.4 mph N/A   Clear
3:15 AM 35.6 °F 28.6 °F 15.8 °F 44% 30.24 in 10.0 mi NW 9.2 mph - N/A   Clear
3:35 AM 33.8 °F 23.2 °F 17.6 °F 52% 30.25 in 10.0 mi NW 17.3 mph 27.6 mph N/A   Clear
3:55 AM 32.0 °F 23.0 °F 17.6 °F 55% 30.25 in 10.0 mi NW 11.5 mph 21.9 mph N/A   Clear
4:15 AM 32.0 °F 20.8 °F 14.0 °F 48% 30.27 in 10.0 mi NW 17.3 mph 28.8 mph N/A   Clear
4:35 AM 32.0 °F 23.0 °F 14.0 °F 48% 30.29 in 10.0 mi WNW 11.5 mph 19.6 mph N/A   Clear
4:55 AM 32.0 °F 21.2 °F 15.8 °F 51% 30.30 in 10.0 mi NW 16.1 mph 19.6 mph N/A   Clear
5:15 AM 32.0 °F 22.1 °F 12.2 °F 44% 30.32 in 10.0 mi NNW 13.8 mph 26.5 mph N/A   Clear
5:55 AM 30.2 °F 21.3 °F 12.2 °F 47% 30.34 in 10.0 mi WNW 10.4 mph - N/A   Clear
6:15 AM 28.4 °F 20.4 °F 12.2 °F 51% 30.35 in 10.0 mi NW 8.1 mph - N/A   Clear
6:35 AM 28.4 °F 18.0 °F 12.2 °F 51% 30.36 in 10.0 mi NW 12.7 mph 17.3 mph N/A   Clear
6:55 AM 28.4 °F 21.2 °F 10.4 °F 47% 30.37 in 10.0 mi WNW 6.9 mph 17.3 mph N/A   Clear
7:35 AM 28.4 °F 18.0 °F 10.4 °F 47% 30.39 in 10.0 mi NW 12.7 mph - N/A   Clear
7:55 AM 30.2 °F 21.3 °F 10.4 °F 44% 30.40 in 10.0 mi NW 10.4 mph - N/A   Clear
8:15 AM 30.2 °F 24.3 °F 10.4 °F 44% 30.41 in 10.0 mi WNW 5.8 mph - N/A   Clear
8:35 AM 32.0 °F 23.0 °F 8.6 °F 38% 30.43 in 10.0 mi NW 11.5 mph 17.3 mph N/A   Clear
8:55 AM 32.0 °F 22.1 °F 8.6 °F 38% 30.44 in 10.0 mi NW 13.8 mph 20.7 mph N/A   Clear
9:15 AM 32.0 °F 23.0 °F 8.6 °F 38% 30.45 in 10.0 mi WNW 11.5 mph 20.7 mph N/A   Clear
9:35 AM 32.0 °F 21.6 °F 8.6 °F 38% 30.45 in 10.0 mi WNW 15.0 mph 20.7 mph N/A   Clear
9:55 AM 32.0 °F 20.1 °F 6.8 °F 35% 30.45 in 10.0 mi NW 19.6 mph 25.3 mph N/A   Clear
10:15 AM 32.0 °F 19.8 °F 6.8 °F 35% 30.46 in 10.0 mi NW 20.7 mph 25.3 mph N/A   Clear
10:35 AM 32.0 °F 23.0 °F 3.2 °F 30% 30.47 in 10.0 mi WNW 11.5 mph 23.0 mph N/A   Clear
10:55 AM 32.0 °F 21.2 °F 5.0 °F 32% 30.47 in 10.0 mi NW 16.1 mph 26.5 mph N/A   Clear
11:15 AM 33.8 °F 22.8 °F 5.0 °F 30% 30.46 in 10.0 mi NW 18.4 mph 24.2 mph N/A   Clear
11:35 AM 33.8 °F 23.5 °F 3.2 °F 28% 30.45 in 10.0 mi NW 16.1 mph 26.5 mph N/A   Clear
11:55 AM 33.8 °F 23.2 °F 5.0 °F 30% 30.44 in 10.0 mi NW 17.3 mph 23.0 mph N/A   Clear
12:15 PM 33.8 °F 23.9 °F 5.0 °F 30% 30.45 in 10.0 mi NW 15.0 mph 25.3 mph N/A   Clear
12:35 PM 33.8 °F 23.9 °F 3.2 °F 28% 30.44 in 10.0 mi NW 15.0 mph 25.3 mph N/A   Clear
12:55 PM 33.8 °F 23.5 °F 3.2 °F 28% 30.44 in 10.0 mi NW 16.1 mph 23.0 mph N/A   Clear
1:15 PM 33.8 °F 25.8 °F 3.2 °F 28% 30.42 in 10.0 mi WNW 10.4 mph 23.0 mph N/A   Clear
1:35 PM 33.8 °F 23.2 °F 3.2 °F 28% 30.42 in 10.0 mi NW 17.3 mph 23.0 mph N/A   Clear
1:55 PM 33.8 °F 24.3 °F 3.2 °F 28% 30.43 in 10.0 mi WNW 13.8 mph 19.6 mph N/A   Clear
2:15 PM 33.8 °F 24.3 °F 3.2 °F 28% 30.43 in 10.0 mi WNW 13.8 mph 23.0 mph N/A   Clear
2:35 PM 33.8 °F 26.4 °F 1.4 °F 25% 30.43 in 10.0 mi NW 9.2 mph 20.7 mph N/A   Clear
2:55 PM 33.8 °F 23.9 °F 3.2 °F 28% 30.44 in 10.0 mi NW 15.0 mph 20.7 mph N/A   Clear
3:15 PM 33.8 °F 24.8 °F 1.4 °F 25% 30.44 in 10.0 mi NW 12.7 mph 23.0 mph N/A   Clear
3:35 PM 33.8 °F 25.3 °F 3.2 °F 28% 30.45 in 10.0 mi West 11.5 mph 19.6 mph N/A   Clear
3:55 PM 33.8 °F 24.8 °F 3.2 °F 28% 30.45 in 10.0 mi WNW 12.7 mph 17.3 mph N/A   Clear
4:15 PM 32.0 °F 23.6 °F 3.2 °F 30% 30.46 in 10.0 mi NW 10.4 mph - N/A   Clear
4:35 PM 32.0 °F 23.6 °F 1.4 °F 27% 30.46 in 10.0 mi NW 10.4 mph 18.4 mph N/A   Clear
4:55 PM 32.0 °F 25.6 °F 3.2 °F 30% 30.47 in 10.0 mi WNW 6.9 mph - N/A   Clear
4:56 PM 30.2 °F 24.3 °F 1.4 °F 29% 30.46 in 10.0 mi WNW 5.8 mph - N/A   Clear
5:15 PM 30.2 °F 23.4 °F 3.2 °F 32% 30.48 in 10.0 mi WNW 6.9 mph - N/A   Clear
5:35 PM 30.2 °F 25.4 °F 3.2 °F 32% 30.48 in 10.0 mi WNW 4.6 mph - N/A   Clear
5:55 PM 28.4 °F - 3.2 °F 34% 30.50 in 10.0 mi Calm Calm - N/A   Clear
6:15 PM 28.4 °F 22.2 °F 3.2 °F 34% 30.50 in 10.0 mi WNW 5.8 mph - N/A   Clear
6:35 PM 28.4 °F - 3.2 °F 34% 30.51 in 10.0 mi Calm Calm - N/A   Clear
6:55 PM 26.6 °F 22.6 °F 5.0 °F 40% 30.52 in 10.0 mi NW 3.5 mph - N/A   Clear
7:15 PM 26.6 °F - 5.0 °F 40% 30.53 in 10.0 mi Calm Calm - N/A   Clear
7:35 PM 26.6 °F 22.6 °F 5.0 °F 40% 30.53 in 10.0 mi NNW 3.5 mph - N/A   Clear
7:55 PM 26.6 °F 20.0 °F 5.0 °F 40% 30.53 in 10.0 mi NW 5.8 mph - N/A   Clear
8:15 PM 26.6 °F - 5.0 °F 40% 30.53 in 10.0 mi Calm Calm - N/A   Clear
8:35 PM 26.6 °F 22.6 °F 5.0 °F 40% 30.54 in 10.0 mi NW 3.5 mph - N/A   Clear
8:55 PM 24.8 °F 19.1 °F 5.0 °F 43% 30.54 in 10.0 mi NW 4.6 mph - N/A   Clear
9:15 PM 24.8 °F 20.5 °F 5.0 °F 43% 30.55 in 10.0 mi NW 3.5 mph - N/A   Clear
9:35 PM 24.8 °F - 5.0 °F 43% 30.55 in 10.0 mi Calm Calm - N/A   Clear
9:55 PM 26.6 °F - 5.0 °F 40% 30.56 in 10.0 mi Calm Calm - N/A   Clear
10:15 PM 26.6 °F - 5.0 °F 40% 30.56 in 10.0 mi Calm Calm - N/A   Clear
10:35 PM 24.8 °F - 8.6 °F 50% 30.56 in 10.0 mi Calm Calm - N/A   Clear
10:55 PM 21.2 °F - 8.6 °F 58% 30.56 in 10.0 mi Calm Calm - N/A   Clear
11:15 PM 21.2 °F - 10.4 °F 63% 30.56 in 10.0 mi Calm Calm - N/A   Clear
11:35 PM 21.2 °F - 10.4 °F 63% 30.56 in 10.0 mi Calm Calm - N/A   Clear
11:55 PM 21.2 °F - 12.2 °F 68% 30.56 in 10.0 mi Calm Calm - N/A   Clear